createdAt,value
2023-05-10T00:01:55.630Z,66
2023-05-10T00:05:20.689Z,67
2023-05-10T00:08:45.873Z,66
2023-05-10T00:12:11.025Z,67
2023-05-10T00:15:36.148Z,67
2023-05-10T00:19:01.346Z,68
2023-05-10T00:22:26.435Z,68
2023-05-10T00:25:51.577Z,68
2023-05-10T00:29:16.715Z,68
2023-05-10T00:32:41.851Z,69
2023-05-10T00:36:07.047Z,68
2023-05-10T00:39:32.185Z,68
2023-05-10T00:42:57.323Z,68
2023-05-10T00:46:22.508Z,68
2023-05-10T00:49:47.584Z,68
2023-05-10T00:53:12.738Z,69
2023-05-10T00:56:37.865Z,69
2023-05-10T01:00:03.028Z,69
2023-05-10T01:03:28.163Z,69
2023-05-10T01:06:53.326Z,69
2023-05-10T01:10:18.611Z,69
2023-05-10T01:13:43.612Z,69
2023-05-10T01:17:08.713Z,69
2023-05-10T01:20:33.881Z,69
2023-05-10T01:23:58.999Z,70
2023-05-10T01:27:24.182Z,69
2023-05-10T01:30:49.308Z,70
2023-05-10T01:34:14.440Z,69
2023-05-10T01:37:39.605Z,69
2023-05-10T01:41:04.751Z,70
2023-05-10T01:44:29.959Z,71
2023-05-10T01:47:55.184Z,70
2023-05-10T01:51:20.253Z,71
2023-05-10T01:54:45.398Z,71
2023-05-10T01:58:10.545Z,70
2023-05-10T02:01:35.709Z,70
2023-05-10T02:05:00.875Z,70
2023-05-10T02:08:26.074Z,70
2023-05-10T02:11:51.252Z,70
2023-05-10T02:15:16.402Z,70
2023-05-10T02:18:41.705Z,71
2023-05-10T02:22:06.714Z,71
2023-05-10T02:25:31.868Z,71
2023-05-10T02:28:56.983Z,70
2023-05-10T02:32:22.133Z,70
2023-05-10T02:35:47.277Z,70
2023-05-10T02:39:12.387Z,70
2023-05-10T02:42:37.537Z,70
2023-05-10T02:46:02.774Z,70
2023-05-10T02:49:27.910Z,70
2023-05-10T02:52:53.108Z,70
2023-05-10T02:56:18.263Z,70
2023-05-10T02:59:43.401Z,70
2023-05-10T03:03:08.628Z,70
2023-05-10T03:06:33.713Z,69
2023-05-10T03:09:58.923Z,70
2023-05-10T03:13:24.097Z,70
2023-05-10T03:16:49.219Z,69
2023-05-10T03:20:14.573Z,70
2023-05-10T03:23:39.736Z,70
2023-05-10T03:27:04.968Z,70
2023-05-10T03:30:30.132Z,70
2023-05-10T03:33:55.371Z,70
2023-05-10T03:37:20.569Z,70
2023-05-10T03:40:45.770Z,71
2023-05-10T03:44:10.995Z,71
2023-05-10T03:47:36.204Z,70
2023-05-10T03:51:01.402Z,70
2023-05-10T03:54:26.527Z,70
2023-05-10T03:57:51.672Z,70
2023-05-10T04:01:16.812Z,71
2023-05-10T04:04:41.931Z,70
2023-05-10T04:08:07.064Z,71
2023-05-10T04:11:32.206Z,72
2023-05-10T04:14:57.353Z,73
2023-05-10T04:18:22.491Z,74
2023-05-10T04:21:47.592Z,75
2023-05-10T04:25:12.732Z,76
2023-05-10T04:28:37.865Z,76
2023-05-10T04:32:02.988Z,77
2023-05-10T04:35:28.150Z,77
2023-05-10T04:38:53.275Z,76
2023-05-10T04:42:18.401Z,76
2023-05-10T04:45:43.548Z,75
2023-05-10T04:49:08.723Z,75
2023-05-10T04:52:33.879Z,74
2023-05-10T04:55:59.005Z,74
2023-05-10T04:59:24.136Z,75
2023-05-10T05:02:49.343Z,75
2023-05-10T05:06:14.379Z,76
2023-05-10T05:09:39.533Z,76
2023-05-10T05:13:04.672Z,76
2023-05-10T05:16:29.790Z,76
2023-05-10T05:19:54.941Z,76
2023-05-10T05:23:20.076Z,76
2023-05-10T05:26:45.419Z,77
2023-05-10T05:30:10.545Z,77
2023-05-10T05:33:35.665Z,77
2023-05-10T05:37:00.803Z,77
2023-05-10T05:40:25.967Z,78
2023-05-10T05:43:51.112Z,79
2023-05-10T05:47:16.228Z,80
2023-05-10T05:50:41.345Z,80
2023-05-10T05:54:06.484Z,81
2023-05-10T05:57:31.647Z,82
2023-05-10T06:00:56.785Z,82
2023-05-10T06:04:21.918Z,83
2023-05-10T06:07:47.019Z,83
2023-05-10T06:11:12.152Z,85
2023-05-10T06:14:37.284Z,85
2023-05-10T06:18:02.495Z,86
2023-05-10T06:21:27.532Z,86
2023-05-10T06:24:52.681Z,86
2023-05-10T06:28:17.797Z,87
2023-05-10T06:31:42.943Z,87
2023-05-10T06:35:08.057Z,88
2023-05-10T06:38:33.203Z,88
2023-05-10T06:41:58.343Z,88
2023-05-10T06:45:23.467Z,88
2023-05-10T06:48:48.590Z,89
2023-05-10T06:52:13.774Z,89
2023-05-10T06:55:38.885Z,89
2023-05-10T06:59:04.053Z,89
2023-05-10T07:02:29.263Z,89
2023-05-10T07:05:54.339Z,90
2023-05-10T07:09:19.499Z,90
2023-05-10T07:12:44.696Z,91
2023-05-10T07:16:09.807Z,92
2023-05-10T07:19:34.943Z,93
2023-05-10T07:23:00.093Z,93
2023-05-10T07:26:25.333Z,93
2023-05-10T07:29:50.419Z,93
2023-05-10T07:33:15.619Z,93
2023-05-10T07:36:40.694Z,93
2023-05-10T07:40:05.845Z,93
2023-05-10T07:43:31.020Z,92
2023-05-10T07:46:56.126Z,93
2023-05-10T07:50:21.255Z,93
2023-05-10T07:53:46.408Z,93
2023-05-10T07:57:11.565Z,94
2023-05-10T08:00:36.729Z,93
2023-05-10T08:04:01.931Z,94
2023-05-10T08:07:26.958Z,94
2023-05-10T08:10:52.111Z,94
2023-05-10T08:14:17.264Z,94
2023-05-10T08:17:42.488Z,95
2023-05-10T08:21:07.554Z,94
2023-05-10T08:24:33.588Z,94
2023-05-10T08:27:58.725Z,94
2023-05-10T08:31:23.898Z,95
2023-05-10T08:34:49.109Z,95
2023-05-10T08:38:14.242Z,94
2023-05-10T08:41:39.411Z,94
2023-05-10T08:45:04.576Z,94
2023-05-10T08:48:29.736Z,94
2023-05-10T08:51:54.931Z,92
2023-05-10T08:55:20.081Z,93
2023-05-10T08:58:45.269Z,93
2023-05-10T09:02:10.461Z,93
2023-05-10T09:05:35.616Z,93
2023-05-10T09:09:00.838Z,93
2023-05-10T09:12:26.015Z,93
2023-05-10T09:15:51.172Z,93
2023-05-10T09:19:16.419Z,92
2023-05-10T09:22:41.597Z,92
2023-05-10T09:26:06.870Z,92
2023-05-10T09:29:32.067Z,92
2023-05-10T09:32:57.356Z,90
2023-05-10T09:36:22.571Z,91
2023-05-10T09:39:47.725Z,91
2023-05-10T09:43:12.958Z,91
2023-05-10T09:46:38.233Z,91
2023-05-10T09:50:03.356Z,91
2023-05-10T09:53:28.550Z,91
2023-05-10T09:56:53.789Z,91
2023-05-10T10:00:19.175Z,90
2023-05-10T10:03:44.314Z,89
2023-05-10T10:07:09.528Z,89
2023-05-10T10:10:34.807Z,89
2023-05-10T10:14:00.088Z,89
2023-05-10T10:17:26.209Z,89
2023-05-10T10:20:51.457Z,87
2023-05-10T10:24:16.762Z,86
2023-05-10T10:27:41.995Z,87
2023-05-10T10:31:07.274Z,87
2023-05-10T10:34:32.611Z,84
2023-05-10T10:37:57.912Z,85
2023-05-10T10:41:48.083Z,85
2023-05-10T10:45:13.436Z,83
2023-05-10T10:48:38.484Z,84
2023-05-10T10:52:03.932Z,82
2023-05-10T10:55:29.087Z,81
2023-05-10T10:58:54.241Z,81
2023-05-10T11:02:19.410Z,80
2023-05-10T11:05:44.562Z,80
2023-05-10T11:09:09.757Z,81
2023-05-10T11:12:34.951Z,84
2023-05-10T11:16:00.176Z,85
2023-05-10T11:19:25.326Z,84
2023-05-10T11:22:50.474Z,86
2023-05-10T11:26:15.668Z,87
2023-05-10T11:29:40.828Z,87
2023-05-10T11:33:06.033Z,87
2023-05-10T11:36:31.169Z,87
2023-05-10T11:39:56.332Z,87
2023-05-10T11:43:21.561Z,87
2023-05-10T11:46:46.746Z,85
2023-05-10T11:50:11.792Z,84
2023-05-10T11:53:36.965Z,83
2023-05-10T11:57:02.143Z,83
2023-05-10T12:00:27.329Z,82
2023-05-10T12:03:52.504Z,81
2023-05-10T12:07:17.573Z,81
2023-05-10T12:10:42.687Z,80
2023-05-10T12:14:07.817Z,79
2023-05-10T12:17:33.017Z,79
2023-05-10T12:20:58.122Z,79
2023-05-10T12:24:23.314Z,80
2023-05-10T12:27:48.497Z,80
2023-05-10T12:31:13.736Z,78
2023-05-10T12:34:38.912Z,80
2023-05-10T12:38:04.196Z,76
2023-05-10T12:41:29.457Z,76
2023-05-10T12:44:54.700Z,75
2023-05-10T12:48:19.886Z,74
2023-05-10T12:51:45.070Z,74
2023-05-10T12:55:10.196Z,74
2023-05-10T12:58:36.164Z,74
2023-05-10T13:02:00.545Z,75
2023-05-10T13:05:25.696Z,76
2023-05-10T13:08:50.910Z,76
2023-05-10T13:12:16.098Z,76
2023-05-10T13:15:41.293Z,77
2023-05-10T13:19:06.456Z,77
2023-05-10T13:22:39.556Z,78
2023-05-10T13:25:56.788Z,77
2023-05-10T13:29:21.921Z,77
2023-05-10T13:32:47.208Z,78
2023-05-10T13:36:12.340Z,80
2023-05-10T13:39:37.471Z,82
2023-05-10T13:43:02.684Z,83
2023-05-10T13:46:27.889Z,83
2023-05-10T13:49:52.992Z,82
2023-05-10T13:53:18.192Z,81
2023-05-10T13:56:43.400Z,81
2023-05-10T14:00:08.697Z,82
2023-05-10T14:03:33.942Z,83
2023-05-10T14:06:58.975Z,83
2023-05-10T14:10:24.156Z,83
2023-05-10T14:13:49.359Z,83
2023-05-10T14:17:14.622Z,84
2023-05-10T14:20:39.865Z,83
2023-05-10T14:24:04.994Z,81
2023-05-10T14:27:30.139Z,80
2023-05-10T14:30:55.290Z,81
2023-05-10T14:34:20.523Z,81
2023-05-10T14:37:45.709Z,82
2023-05-10T14:41:11.870Z,84
2023-05-10T14:44:36.058Z,83
2023-05-10T14:48:01.309Z,83
2023-05-10T14:51:26.483Z,84
2023-05-10T14:54:51.597Z,85
2023-05-10T14:58:16.843Z,85
2023-05-10T15:01:42.090Z,85
2023-05-10T15:05:07.234Z,85
2023-05-10T15:08:32.417Z,85
2023-05-10T15:45:47.464Z,87
2023-05-10T15:49:12.608Z,87
2023-05-10T15:52:37.745Z,88
2023-05-10T15:56:02.893Z,88
2023-05-10T15:59:28.069Z,88
2023-05-10T16:02:53.447Z,88
2023-05-10T16:06:18.522Z,89
2023-05-10T16:09:43.699Z,89
2023-05-10T16:13:08.871Z,89
2023-05-10T16:16:34.090Z,89
2023-05-10T16:19:59.186Z,89
2023-05-10T16:23:24.420Z,90
2023-05-10T16:26:49.870Z,90
2023-05-10T16:30:14.786Z,91
2023-05-10T16:33:39.949Z,91
2023-05-10T16:37:05.223Z,91
2023-05-10T16:40:30.345Z,88
2023-05-10T16:43:55.527Z,88
2023-05-10T16:47:20.736Z,89
2023-05-10T16:50:45.867Z,89
2023-05-10T16:54:11.113Z,89
2023-05-10T16:57:36.216Z,89
2023-05-10T17:01:01.384Z,88
2023-05-10T17:04:26.550Z,88
2023-05-10T17:07:51.748Z,89
2023-05-10T17:11:17.129Z,89
2023-05-10T17:14:42.204Z,90
2023-05-10T17:18:07.451Z,90
2023-05-10T17:21:32.564Z,91
2023-05-10T17:24:57.733Z,92
2023-05-10T17:28:22.927Z,92
2023-05-10T17:31:48.340Z,93
2023-05-10T17:35:13.467Z,92
2023-05-10T17:38:38.653Z,93
2023-05-10T17:42:03.838Z,93
2023-05-10T17:45:29.105Z,93
2023-05-10T17:48:54.225Z,93
2023-05-10T17:52:19.417Z,93
2023-05-10T17:55:44.604Z,93
2023-05-10T17:59:09.778Z,92
2023-05-10T18:02:34.950Z,92
2023-05-10T18:06:00.192Z,92
2023-05-10T18:09:25.271Z,91
2023-05-10T18:12:50.451Z,92
2023-05-10T18:16:15.636Z,92
2023-05-10T18:19:40.795Z,92
2023-05-10T18:23:05.943Z,92
2023-05-10T18:26:31.086Z,92
2023-05-10T18:29:56.267Z,91
2023-05-10T18:33:21.439Z,92
2023-05-10T18:36:46.608Z,91
2023-05-10T18:40:11.738Z,91
2023-05-10T18:43:36.872Z,91
2023-05-10T18:47:02.023Z,92
2023-05-10T18:50:27.152Z,92
2023-05-10T18:53:52.317Z,92
2023-05-10T18:57:17.438Z,92
2023-05-10T19:00:42.611Z,92
2023-05-10T19:04:07.763Z,92
2023-05-10T19:07:32.878Z,93
2023-05-10T19:10:58.071Z,93
2023-05-10T19:14:23.200Z,93
2023-05-10T19:17:51.608Z,93
2023-05-10T19:21:19.220Z,93
2023-05-10T19:24:46.984Z,93
2023-05-10T19:28:13.149Z,93
2023-05-10T19:31:38.747Z,93
2023-05-10T19:35:03.871Z,93
2023-05-10T19:38:29.641Z,93
2023-05-10T19:41:55.367Z,94
2023-05-10T19:45:20.591Z,93
2023-05-10T19:48:45.694Z,93
2023-05-10T19:52:10.834Z,93
2023-05-10T19:55:36.004Z,93
2023-05-10T19:59:01.185Z,93
2023-05-10T20:02:26.381Z,93
2023-05-10T20:05:51.488Z,92
2023-05-10T20:09:16.653Z,92
2023-05-10T20:12:41.811Z,92
2023-05-10T20:16:06.954Z,92
2023-05-10T20:19:32.170Z,92
2023-05-10T20:22:57.325Z,92
2023-05-10T20:26:22.498Z,92
2023-05-10T20:29:47.619Z,92
2023-05-10T20:33:12.727Z,93
2023-05-10T20:36:37.948Z,93
2023-05-10T20:40:03.067Z,93
2023-05-10T20:43:28.225Z,93
2023-05-10T20:46:53.397Z,93
2023-05-10T20:50:18.657Z,93
2023-05-10T20:53:43.696Z,93
2023-05-10T20:57:08.783Z,93
2023-05-10T21:00:33.906Z,93
2023-05-10T21:03:59.067Z,93
2023-05-10T21:07:24.224Z,93
2023-05-10T21:10:49.404Z,94
2023-05-10T21:14:14.505Z,94
2023-05-10T21:17:39.691Z,94
2023-05-10T21:21:04.818Z,94
2023-05-10T21:24:29.988Z,94
2023-05-10T21:27:55.201Z,94
2023-05-10T21:31:20.375Z,94
2023-05-10T21:34:45.461Z,94
2023-05-10T21:38:10.613Z,94
2023-05-10T21:41:35.796Z,94
2023-05-10T21:45:00.953Z,93
2023-05-10T21:48:26.080Z,93
2023-05-10T21:51:51.256Z,92
2023-05-10T21:55:16.397Z,93
2023-05-10T21:58:41.570Z,93
2023-05-10T22:02:06.753Z,94
2023-05-10T22:05:31.853Z,93
2023-05-10T22:08:57.016Z,93
2023-05-10T22:12:22.157Z,94
2023-05-10T22:15:47.335Z,94
2023-05-10T22:19:12.530Z,93
2023-05-10T22:22:37.651Z,93
2023-05-10T22:26:02.774Z,93
2023-05-10T22:29:27.947Z,93
2023-05-10T22:32:53.193Z,93
2023-05-10T22:36:18.275Z,94
2023-05-10T22:39:43.403Z,94
2023-05-10T22:43:08.579Z,94
2023-05-10T22:46:33.756Z,94
2023-05-10T22:49:58.866Z,94
2023-05-10T22:53:24.064Z,93
2023-05-10T22:56:49.198Z,93
2023-05-10T23:00:14.358Z,93
2023-05-10T23:03:39.474Z,93
2023-05-10T23:07:04.610Z,93
2023-05-10T23:10:29.787Z,93
2023-05-10T23:13:54.890Z,93
2023-05-10T23:17:20.074Z,93
2023-05-10T23:20:45.245Z,93
2023-05-10T23:24:10.387Z,93
2023-05-10T23:27:35.576Z,93
2023-05-10T23:31:00.701Z,93
2023-05-10T23:34:25.813Z,93
2023-05-10T23:37:50.919Z,93
2023-05-10T23:41:16.090Z,93
2023-05-10T23:44:41.266Z,93
2023-05-10T23:48:06.428Z,93
2023-05-10T23:51:31.526Z,92
2023-05-10T23:54:56.681Z,92
2023-05-10T23:58:21.886Z,92
